createdAt,value
2017-10-29T00:00:20.867Z,1003.5
2017-10-29T00:01:22.483Z,1003.4
2017-10-29T00:02:24.102Z,1003.4
2017-10-29T00:03:25.718Z,1003.5
2017-10-29T00:04:27.335Z,1003.5
2017-10-29T00:05:28.953Z,1003.5
2017-10-29T00:06:30.566Z,1003.4
2017-10-29T00:07:32.179Z,1003.5
2017-10-29T00:08:33.793Z,1003.4
2017-10-29T00:09:35.409Z,1003.3
2017-10-29T00:10:37.024Z,1003.3
2017-10-29T00:11:38.643Z,1003.3
2017-10-29T00:12:40.259Z,1003.3
2017-10-29T00:13:41.871Z,1003.3
2017-10-29T00:14:43.488Z,1003.3
2017-10-29T00:15:45.104Z,1003.3
2017-10-29T00:16:46.719Z,1003.3
2017-10-29T00:17:48.339Z,1003.3
2017-10-29T00:18:49.954Z,1003.3
2017-10-29T00:19:51.569Z,1003.4
2017-10-29T00:20:53.180Z,1003.3
2017-10-29T00:21:54.795Z,1003.3
2017-10-29T00:22:56.411Z,1003.3
2017-10-29T00:23:58.035Z,1003.2
2017-10-29T00:24:59.643Z,1003.2
2017-10-29T00:26:01.260Z,1003.2
2017-10-29T00:27:02.876Z,1003.2
2017-10-29T00:28:04.488Z,1003.3
2017-10-29T00:29:06.101Z,1003.3
2017-10-29T00:30:07.714Z,1003.3
2017-10-29T00:31:09.332Z,1003.3
2017-10-29T00:32:10.947Z,1003.2
2017-10-29T00:33:12.565Z,1003.2
2017-10-29T00:34:14.180Z,1003.2
2017-10-29T00:35:15.794Z,1003.2
2017-10-29T00:36:17.410Z,1003.1
2017-10-29T00:37:19.030Z,1003.0
2017-10-29T00:38:20.645Z,1003.0
2017-10-29T00:39:22.260Z,1003.0
2017-10-29T00:40:23.879Z,1003.0
2017-10-29T00:41:25.493Z,1003.1
2017-10-29T00:42:27.107Z,1003.0
2017-10-29T00:43:28.724Z,1002.9
2017-10-29T00:44:30.340Z,1003.0
2017-10-29T00:45:31.954Z,1003.0
2017-10-29T00:46:33.571Z,1003.0
2017-10-29T00:47:35.186Z,1002.9
2017-10-29T00:48:36.801Z,1002.9
2017-10-29T00:49:38.417Z,1002.9
2017-10-29T00:50:40.033Z,1002.9
2017-10-29T00:51:41.649Z,1002.9
2017-10-29T00:52:43.260Z,1002.9
2017-10-29T00:53:44.876Z,1002.9
2017-10-29T00:54:46.488Z,1002.8
2017-10-29T00:55:48.103Z,1002.9
2017-10-29T00:56:49.719Z,1002.8
2017-10-29T00:57:51.333Z,1002.8
2017-10-29T00:58:52.955Z,1002.7
2017-10-29T00:59:54.567Z,1002.7
2017-10-29T01:00:56.183Z,1002.7
2017-10-29T01:01:57.799Z,1002.7
2017-10-29T01:02:59.417Z,1002.7
2017-10-29T01:04:01.031Z,1002.6
2017-10-29T01:05:02.646Z,1002.6
2017-10-29T01:06:04.265Z,1002.6
2017-10-29T01:07:05.875Z,1002.8
2017-10-29T01:08:07.494Z,1002.7
2017-10-29T01:09:09.114Z,1002.6
2017-10-29T01:10:10.744Z,1002.6
2017-10-29T01:11:12.358Z,1002.6
2017-10-29T01:12:13.973Z,1002.6
2017-10-29T01:13:15.589Z,1002.7
2017-10-29T01:14:17.210Z,1002.6
2017-10-29T01:15:18.820Z,1002.5
2017-10-29T01:16:20.438Z,1002.6
2017-10-29T01:17:22.049Z,1002.6
2017-10-29T01:18:23.665Z,1002.6
2017-10-29T01:19:25.284Z,1002.6
2017-10-29T01:20:26.896Z,1002.7
2017-10-29T01:21:28.515Z,1002.6
2017-10-29T01:22:30.129Z,1002.5
2017-10-29T01:23:31.742Z,1002.5
2017-10-29T01:24:33.363Z,1002.5
2017-10-29T01:25:34.977Z,1002.5
2017-10-29T01:26:36.591Z,1002.4
2017-10-29T01:27:38.204Z,1002.4
2017-10-29T01:28:39.821Z,1002.5
2017-10-29T01:29:41.436Z,1002.5
2017-10-29T01:30:43.054Z,1002.4
2017-10-29T01:31:44.668Z,1002.4
2017-10-29T01:32:46.283Z,1002.4
2017-10-29T01:33:47.895Z,1002.4
2017-10-29T01:34:49.505Z,1002.4
2017-10-29T01:35:51.121Z,1002.3
2017-10-29T01:36:52.738Z,1002.3
2017-10-29T01:37:54.349Z,1002.2
2017-10-29T01:38:55.966Z,1002.2
2017-10-29T01:39:57.576Z,1002.2
2017-10-29T01:40:59.186Z,1002.1
2017-10-29T01:42:00.803Z,1002.2
2017-10-29T01:43:02.764Z,1002.1
2017-10-29T01:44:04.616Z,1002.2
2017-10-29T01:45:06.279Z,1002.2
2017-10-29T01:46:07.886Z,1002.2
2017-10-29T01:47:09.599Z,1002.1
2017-10-29T01:48:11.227Z,1002.2
2017-10-29T01:49:12.845Z,1002.1
2017-10-29T01:50:14.496Z,1002.1
2017-10-29T01:51:16.167Z,1002.0
2017-10-29T01:52:17.854Z,1002.0
2017-10-29T01:53:19.572Z,1002.0
2017-10-29T01:54:21.264Z,1001.8
2017-10-29T01:55:22.874Z,1001.9
2017-10-29T01:56:24.527Z,1002.0
2017-10-29T01:57:26.182Z,1002.0
2017-10-29T01:58:27.822Z,1001.9
2017-10-29T01:59:29.523Z,1001.8
2017-10-29T02:00:31.150Z,1001.9
2017-10-29T02:01:32.822Z,1001.8
2017-10-29T02:02:34.433Z,1001.8
2017-10-29T02:03:36.044Z,1001.7
2017-10-29T02:04:37.715Z,1001.8
2017-10-29T02:05:39.406Z,1001.7
2017-10-29T02:06:41.061Z,1001.8
2017-10-29T02:07:42.689Z,1001.7
2017-10-29T02:08:44.312Z,1001.7
2017-10-29T02:09:46.014Z,1001.6
2017-10-29T02:10:47.637Z,1001.7
2017-10-29T02:11:49.337Z,1001.7
2017-10-29T02:12:50.955Z,1001.6
2017-10-29T02:13:52.581Z,1001.5
2017-10-29T02:14:54.202Z,1001.6
2017-10-29T02:15:55.877Z,1001.5
2017-10-29T02:16:57.528Z,1001.6
2017-10-29T02:17:59.164Z,1001.5
2017-10-29T02:19:00.813Z,1001.6
2017-10-29T02:20:02.432Z,1001.6
2017-10-29T02:21:04.090Z,1001.5
2017-10-29T02:22:05.713Z,1001.5
2017-10-29T02:23:07.376Z,1001.5
2017-10-29T02:24:08.956Z,1001.5
2017-10-29T02:25:10.607Z,1001.5
2017-10-29T02:26:12.230Z,1001.5
2017-10-29T02:27:13.898Z,1001.5
2017-10-29T02:28:15.560Z,1001.4
2017-10-29T02:29:17.191Z,1001.5
2017-10-29T02:30:18.808Z,1001.5
2017-10-29T02:31:20.559Z,1001.4
2017-10-29T02:32:22.177Z,1001.5
2017-10-29T02:33:23.828Z,1001.4
2017-10-29T02:34:25.463Z,1001.4
2017-10-29T02:35:27.109Z,1001.4
2017-10-29T02:36:28.738Z,1001.4
2017-10-29T02:37:30.354Z,1001.4
2017-10-29T02:38:32.055Z,1001.4
2017-10-29T02:39:33.749Z,1001.4
2017-10-29T02:40:35.363Z,1001.3
2017-10-29T02:41:36.980Z,1001.3
2017-10-29T02:42:38.595Z,1001.3
2017-10-29T02:43:40.224Z,1001.4
2017-10-29T02:44:41.876Z,1001.4
2017-10-29T02:45:43.500Z,1001.4
2017-10-29T02:46:45.156Z,1001.4
2017-10-29T02:47:46.788Z,1001.5
2017-10-29T02:48:48.448Z,1001.5
2017-10-29T02:49:50.062Z,1001.6
2017-10-29T02:50:51.723Z,1001.4
2017-10-29T02:51:53.361Z,1001.4
2017-10-29T02:52:54.981Z,1001.5
2017-10-29T02:53:56.623Z,1001.5
2017-10-29T02:54:58.228Z,1001.5
2017-10-29T02:55:59.840Z,1001.5
2017-10-29T02:57:01.462Z,1001.5
2017-10-29T02:58:03.102Z,1001.5
2017-10-29T02:59:04.743Z,1001.5
2017-10-29T03:00:06.381Z,1001.5
2017-10-29T03:01:08.000Z,1001.5
2017-10-29T03:02:09.622Z,1001.5
2017-10-29T03:03:11.243Z,1001.5
2017-10-29T03:04:12.865Z,1001.5
2017-10-29T03:05:14.502Z,1001.4
2017-10-29T03:06:16.122Z,1001.3
2017-10-29T03:07:17.744Z,1001.4
2017-10-29T03:08:19.350Z,1001.3
2017-10-29T03:09:20.977Z,1001.4
2017-10-29T03:10:22.612Z,1001.4
2017-10-29T03:11:24.254Z,1001.3
2017-10-29T03:12:25.881Z,1001.5
2017-10-29T03:13:27.513Z,1001.3
2017-10-29T03:14:29.192Z,1001.3
2017-10-29T03:15:30.817Z,1001.2
2017-10-29T03:16:32.445Z,1001.3
2017-10-29T03:17:34.065Z,1001.3
2017-10-29T03:18:35.699Z,1001.2
2017-10-29T03:19:37.317Z,1001.3
2017-10-29T03:20:38.949Z,1001.3
2017-10-29T03:21:40.569Z,1001.4
2017-10-29T03:22:42.183Z,1001.3
2017-10-29T03:23:43.802Z,1001.3
2017-10-29T03:24:45.495Z,1001.2
2017-10-29T03:25:47.183Z,1001.3
2017-10-29T03:26:48.800Z,1001.3
2017-10-29T03:27:50.445Z,1001.2
2017-10-29T03:28:52.085Z,1001.2
2017-10-29T03:29:53.799Z,1001.2
2017-10-29T03:30:55.441Z,1001.2
2017-10-29T03:31:57.061Z,1001.2
2017-10-29T03:32:58.718Z,1001.3
2017-10-29T03:34:00.463Z,1001.5
2017-10-29T03:35:02.137Z,1001.4
2017-10-29T03:36:03.740Z,1001.5
2017-10-29T03:37:05.355Z,1001.5
2017-10-29T03:38:07.008Z,1001.5
2017-10-29T03:39:08.685Z,1001.6
2017-10-29T03:40:10.294Z,1001.6
2017-10-29T03:41:11.913Z,1001.6
2017-10-29T03:42:13.602Z,1001.6
2017-10-29T03:43:15.247Z,1001.6
2017-10-29T03:44:16.898Z,1001.6
2017-10-29T03:45:18.545Z,1001.6
2017-10-29T03:46:20.220Z,1001.6
2017-10-29T03:47:21.841Z,1001.6
2017-10-29T03:48:23.464Z,1001.6
2017-10-29T03:49:25.122Z,1001.6
2017-10-29T03:50:26.776Z,1001.6
2017-10-29T03:51:28.396Z,1001.4
2017-10-29T03:52:30.015Z,1001.5
2017-10-29T03:53:31.648Z,1001.5
2017-10-29T03:54:33.276Z,1001.5
2017-10-29T03:55:34.900Z,1001.5
2017-10-29T03:56:36.527Z,1001.5
2017-10-29T03:57:38.190Z,1001.5
2017-10-29T03:58:39.860Z,1001.6
2017-10-29T03:59:41.515Z,1001.5
2017-10-29T04:00:43.160Z,1001.6
2017-10-29T04:01:44.805Z,1001.5
2017-10-29T04:02:46.549Z,1001.5
2017-10-29T04:03:48.209Z,1001.5
2017-10-29T04:04:49.823Z,1001.4
2017-10-29T04:05:51.504Z,1001.5
2017-10-29T04:06:53.124Z,1001.6
2017-10-29T04:07:54.756Z,1001.5
2017-10-29T04:08:56.399Z,1001.6
2017-10-29T04:09:58.025Z,1001.6
2017-10-29T04:10:59.655Z,1001.7
2017-10-29T04:12:01.266Z,1001.6
2017-10-29T04:13:02.887Z,1001.8
2017-10-29T04:14:04.523Z,1001.6
2017-10-29T04:15:06.139Z,1001.7
2017-10-29T04:16:07.773Z,1001.7
2017-10-29T04:17:09.397Z,1001.9
2017-10-29T04:18:11.021Z,1001.8
2017-10-29T04:19:12.633Z,1001.8
2017-10-29T04:20:14.332Z,1002.0
2017-10-29T04:21:15.955Z,1002.0
2017-10-29T04:22:17.562Z,1002.2
2017-10-29T04:23:19.175Z,1002.2
2017-10-29T04:24:20.808Z,1002.0
2017-10-29T04:25:22.460Z,1002.0
2017-10-29T04:26:24.076Z,1002.0
2017-10-29T04:27:25.722Z,1002.1
2017-10-29T04:28:27.335Z,1002.0
2017-10-29T04:29:28.954Z,1002.2
2017-10-29T04:30:30.570Z,1002.2
2017-10-29T04:31:32.197Z,1002.2
2017-10-29T04:32:33.803Z,1002.0
2017-10-29T04:33:35.422Z,1002.1
2017-10-29T04:34:37.032Z,1002.0
2017-10-29T04:35:38.666Z,1002.0
2017-10-29T04:36:40.284Z,1002.0
2017-10-29T04:37:41.918Z,1002.0
2017-10-29T04:38:43.556Z,1002.2
2017-10-29T04:39:45.171Z,1002.1
2017-10-29T04:40:46.780Z,1002.2
2017-10-29T04:41:48.394Z,1002.1
2017-10-29T04:42:50.012Z,1002.2
2017-10-29T04:43:51.622Z,1002.1
2017-10-29T04:44:53.235Z,1002.2
2017-10-29T04:45:54.849Z,1002.1
2017-10-29T04:46:56.458Z,1002.2
2017-10-29T04:47:58.073Z,1002.3
2017-10-29T04:48:59.684Z,1002.3
2017-10-29T04:50:01.320Z,1002.3
2017-10-29T04:51:02.909Z,1002.2
2017-10-29T04:52:04.529Z,1002.3
2017-10-29T04:53:06.202Z,1002.5
2017-10-29T04:54:07.809Z,1002.4
2017-10-29T04:55:09.433Z,1002.6
2017-10-29T04:56:11.076Z,1002.7
2017-10-29T04:57:12.715Z,1002.7
2017-10-29T04:58:14.332Z,1002.9
2017-10-29T04:59:15.968Z,1002.8
2017-10-29T05:00:17.579Z,1002.7
2017-10-29T05:01:19.193Z,1002.8
2017-10-29T05:02:20.804Z,1002.7
2017-10-29T05:03:22.423Z,1002.6
2017-10-29T05:04:24.060Z,1002.7
2017-10-29T05:05:25.678Z,1002.5
2017-10-29T05:06:27.292Z,1002.7
2017-10-29T05:07:28.929Z,1002.6
2017-10-29T05:08:30.555Z,1002.6
2017-10-29T05:09:32.170Z,1002.5
2017-10-29T05:10:33.786Z,1002.6
2017-10-29T05:11:35.429Z,1002.6
2017-10-29T05:12:37.066Z,1002.6
2017-10-29T05:13:38.707Z,1002.7
2017-10-29T05:14:40.340Z,1002.8
2017-10-29T05:15:41.939Z,1002.8
2017-10-29T05:16:43.592Z,1002.9
2017-10-29T05:17:45.201Z,1002.8
2017-10-29T05:18:46.815Z,1002.9
2017-10-29T05:19:48.518Z,1002.9
2017-10-29T05:20:50.141Z,1002.9
2017-10-29T05:21:51.759Z,1002.9
2017-10-29T05:22:53.396Z,1002.9
2017-10-29T05:23:55.016Z,1002.8
2017-10-29T05:24:56.688Z,1003.0
2017-10-29T05:25:58.303Z,1003.0
2017-10-29T05:26:59.918Z,1002.9
2017-10-29T05:28:01.531Z,1003.0
2017-10-29T05:29:03.148Z,1003.0
2017-10-29T05:30:04.763Z,1003.0
2017-10-29T05:31:06.375Z,1003.1
2017-10-29T05:32:07.998Z,1003.0
2017-10-29T05:33:09.615Z,1003.0
2017-10-29T05:34:11.230Z,1003.1
2017-10-29T05:35:12.841Z,1003.0
2017-10-29T05:36:14.469Z,1003.1
2017-10-29T05:37:16.153Z,1003.0
2017-10-29T05:38:17.774Z,1003.0
2017-10-29T05:39:19.393Z,1003.0
2017-10-29T05:40:21.007Z,1003.0
2017-10-29T05:41:22.640Z,1003.1
2017-10-29T05:42:24.268Z,1003.2
2017-10-29T05:43:25.892Z,1003.1
2017-10-29T05:44:27.511Z,1003.2
2017-10-29T05:45:29.128Z,1003.2
2017-10-29T05:46:30.766Z,1003.2
2017-10-29T05:47:32.386Z,1003.2
2017-10-29T05:48:34.000Z,1003.3
2017-10-29T05:49:35.610Z,1003.3
2017-10-29T05:50:37.236Z,1003.4
2017-10-29T05:51:38.850Z,1003.4
2017-10-29T05:52:40.472Z,1003.3
2017-10-29T05:53:42.088Z,1003.4
2017-10-29T05:54:43.700Z,1003.4
2017-10-29T05:55:45.351Z,1003.5
2017-10-29T05:56:46.966Z,1003.4
2017-10-29T05:57:48.586Z,1003.4
2017-10-29T05:58:50.205Z,1003.4
2017-10-29T05:59:51.831Z,1003.5
2017-10-29T06:00:53.443Z,1003.5
2017-10-29T06:01:55.079Z,1003.5
2017-10-29T06:02:56.678Z,1003.5
2017-10-29T06:03:58.300Z,1003.5
2017-10-29T06:04:59.913Z,1003.6
2017-10-29T06:06:01.527Z,1003.6
2017-10-29T06:07:03.141Z,1003.6
2017-10-29T06:08:04.754Z,1003.7
2017-10-29T06:09:06.372Z,1003.7
2017-10-29T06:10:07.987Z,1003.7
2017-10-29T06:11:09.601Z,1003.7
2017-10-29T06:12:11.232Z,1003.7
2017-10-29T06:13:12.834Z,1003.8
2017-10-29T06:14:14.456Z,1003.8
2017-10-29T06:15:16.067Z,1003.8
2017-10-29T06:16:17.681Z,1003.9
2017-10-29T06:17:19.298Z,1003.9
2017-10-29T06:18:20.914Z,1003.9
2017-10-29T06:19:22.546Z,1004.0
2017-10-29T06:20:24.158Z,1003.9
2017-10-29T06:21:25.773Z,1004.0
2017-10-29T06:22:27.387Z,1004.0
2017-10-29T06:23:29.005Z,1004.1
2017-10-29T06:24:30.623Z,1004.1
2017-10-29T06:25:32.244Z,1004.2
2017-10-29T06:26:33.856Z,1004.3
2017-10-29T06:27:35.470Z,1004.3
2017-10-29T06:28:37.090Z,1004.3
2017-10-29T06:29:38.705Z,1004.4
2017-10-29T06:30:40.322Z,1004.4
2017-10-29T06:31:41.937Z,1004.4
2017-10-29T06:32:43.555Z,1004.4
2017-10-29T06:33:45.172Z,1004.7
2017-10-29T06:34:46.790Z,1004.6
2017-10-29T06:35:48.406Z,1004.7
2017-10-29T06:36:50.023Z,1004.7
2017-10-29T06:37:51.867Z,1004.7
2017-10-29T06:38:53.504Z,1004.8
2017-10-29T06:39:55.118Z,1004.8
2017-10-29T06:40:56.735Z,1004.8
2017-10-29T06:41:58.349Z,1004.8
2017-10-29T06:42:59.968Z,1004.9
2017-10-29T06:44:01.585Z,1004.9
2017-10-29T06:45:03.199Z,1004.9
2017-10-29T06:46:04.815Z,1005.0
2017-10-29T06:47:06.452Z,1005.1
2017-10-29T06:48:08.051Z,1004.9
2017-10-29T06:49:09.663Z,1005.1
2017-10-29T06:50:11.275Z,1005.2
2017-10-29T06:51:12.890Z,1005.1
2017-10-29T06:52:14.505Z,1005.1
2017-10-29T06:53:16.123Z,1005.2
2017-10-29T06:54:17.738Z,1005.1
2017-10-29T06:55:19.354Z,1005.2
2017-10-29T06:56:20.969Z,1005.2
2017-10-29T06:57:22.584Z,1005.2
2017-10-29T06:58:24.198Z,1005.3
2017-10-29T06:59:25.818Z,1005.3
2017-10-29T07:00:27.440Z,1005.4
2017-10-29T07:01:29.056Z,1005.5
2017-10-29T07:02:30.673Z,1005.5
2017-10-29T07:03:32.290Z,1005.5
2017-10-29T07:04:33.905Z,1005.6
2017-10-29T07:05:35.517Z,1005.6
2017-10-29T07:06:37.137Z,1005.7
2017-10-29T07:07:38.753Z,1005.6
2017-10-29T07:08:40.369Z,1005.6
2017-10-29T07:09:41.986Z,1005.7
2017-10-29T07:10:43.603Z,1005.7
2017-10-29T07:11:45.220Z,1005.7
2017-10-29T07:12:46.838Z,1005.8
2017-10-29T07:13:48.457Z,1005.9
2017-10-29T07:14:50.071Z,1005.9
2017-10-29T07:15:51.689Z,1006.0
2017-10-29T07:16:53.305Z,1006.1
2017-10-29T07:17:55.277Z,1006.0
2017-10-29T07:18:56.892Z,1006.1
2017-10-29T07:19:58.508Z,1006.1
2017-10-29T07:21:00.130Z,1006.2
2017-10-29T07:22:01.748Z,1006.2
2017-10-29T07:23:03.368Z,1006.2
2017-10-29T07:24:04.986Z,1006.1
2017-10-29T07:25:06.599Z,1006.2
2017-10-29T07:26:08.220Z,1006.2
2017-10-29T07:27:09.838Z,1006.2
2017-10-29T07:28:11.462Z,1006.2
2017-10-29T07:29:13.087Z,1006.2
2017-10-29T07:30:14.693Z,1006.3
2017-10-29T07:31:16.313Z,1006.3
2017-10-29T07:32:17.933Z,1006.3
2017-10-29T07:33:19.551Z,1006.4
2017-10-29T07:34:21.167Z,1006.4
2017-10-29T07:35:22.785Z,1006.5
2017-10-29T07:36:24.403Z,1006.3
2017-10-29T07:37:26.042Z,1006.5
2017-10-29T07:38:27.661Z,1006.5
2017-10-29T07:39:29.279Z,1006.5
2017-10-29T07:40:30.897Z,1006.5
2017-10-29T07:41:32.508Z,1006.6
2017-10-29T07:42:34.123Z,1006.6
2017-10-29T07:43:35.746Z,1006.6
2017-10-29T07:44:37.370Z,1006.7
2017-10-29T07:45:38.981Z,1006.6
2017-10-29T07:46:40.594Z,1006.6
2017-10-29T07:47:42.215Z,1006.7
2017-10-29T07:48:43.835Z,1006.8
2017-10-29T07:49:45.451Z,1006.7
2017-10-29T07:50:47.071Z,1006.8
2017-10-29T07:51:48.692Z,1006.8
2017-10-29T07:52:50.308Z,1006.8
2017-10-29T07:53:51.920Z,1006.8
2017-10-29T07:54:53.540Z,1006.8
2017-10-29T07:55:55.160Z,1006.9
2017-10-29T07:56:56.812Z,1006.8
2017-10-29T07:57:58.397Z,1006.9
2017-10-29T07:59:00.019Z,1007.0
2017-10-29T08:00:01.640Z,1007.0
2017-10-29T08:01:03.257Z,1007.0
2017-10-29T08:02:04.878Z,1007.0
2017-10-29T08:03:06.490Z,1007.1
2017-10-29T08:04:08.111Z,1007.1
2017-10-29T08:05:09.731Z,1007.1
2017-10-29T08:06:11.363Z,1007.2
2017-10-29T08:07:12.971Z,1007.1
2017-10-29T08:08:14.587Z,1007.2
2017-10-29T08:09:16.206Z,1007.2
2017-10-29T08:10:17.823Z,1007.3
2017-10-29T08:11:19.443Z,1007.3
2017-10-29T08:12:21.061Z,1007.3
2017-10-29T08:13:22.673Z,1007.3
2017-10-29T08:14:24.305Z,1007.3
2017-10-29T08:15:25.922Z,1007.3
2017-10-29T08:16:27.539Z,1007.4
2017-10-29T08:17:29.168Z,1007.5
2017-10-29T08:18:30.783Z,1007.4
2017-10-29T08:19:32.400Z,1007.4
2017-10-29T08:20:34.019Z,1007.4
2017-10-29T08:21:35.641Z,1007.5
2017-10-29T08:22:37.259Z,1007.6
2017-10-29T08:23:38.878Z,1007.6
2017-10-29T08:24:40.507Z,1007.6
2017-10-29T08:25:42.138Z,1007.6
2017-10-29T08:26:43.742Z,1007.6
2017-10-29T08:27:45.364Z,1007.7
2017-10-29T08:28:46.990Z,1007.7
2017-10-29T08:29:48.609Z,1007.7
2017-10-29T08:30:50.229Z,1007.7
2017-10-29T08:31:51.850Z,1007.7
2017-10-29T08:32:53.472Z,1007.8
2017-10-29T08:33:55.093Z,1007.6
2017-10-29T08:34:56.716Z,1007.6
2017-10-29T08:35:58.339Z,1007.7
2017-10-29T08:36:59.965Z,1007.7
2017-10-29T08:38:01.587Z,1007.8
2017-10-29T08:39:03.205Z,1007.8
2017-10-29T08:40:04.823Z,1007.8
2017-10-29T08:41:06.444Z,1007.8
2017-10-29T08:42:08.068Z,1008.0
2017-10-29T08:43:09.693Z,1008.1
2017-10-29T08:44:11.319Z,1008.1
2017-10-29T08:45:12.941Z,1008.1
2017-10-29T08:46:14.562Z,1008.1
2017-10-29T08:47:16.181Z,1008.1
2017-10-29T08:48:17.802Z,1008.1
2017-10-29T08:49:19.420Z,1008.0
2017-10-29T08:50:21.042Z,1008.0
2017-10-29T08:51:22.661Z,1007.9
2017-10-29T08:52:24.278Z,1007.9
2017-10-29T08:53:25.905Z,1007.9
2017-10-29T08:54:27.519Z,1008.0
2017-10-29T08:55:29.139Z,1008.0
2017-10-29T08:56:30.760Z,1008.1
2017-10-29T08:57:32.379Z,1008.0
2017-10-29T08:58:33.995Z,1008.1
2017-10-29T08:59:35.613Z,1008.0
2017-10-29T09:00:37.230Z,1008.1
2017-10-29T09:01:38.849Z,1008.2
2017-10-29T09:02:40.475Z,1008.2
2017-10-29T09:03:42.093Z,1008.5
2017-10-29T09:04:43.712Z,1008.4
2017-10-29T09:05:45.347Z,1008.2
2017-10-29T09:06:46.967Z,1008.3
2017-10-29T09:07:48.586Z,1008.3
2017-10-29T09:08:50.206Z,1008.7
2017-10-29T09:09:51.825Z,1008.5
2017-10-29T09:10:53.446Z,1009.0
2017-10-29T09:11:55.067Z,1008.6
2017-10-29T09:12:56.684Z,1008.7
2017-10-29T09:13:58.303Z,1008.8
2017-10-29T09:14:59.924Z,1008.8
2017-10-29T09:16:01.548Z,1008.8
2017-10-29T09:17:03.167Z,1008.6
2017-10-29T09:18:04.787Z,1008.6
2017-10-29T09:19:06.423Z,1008.8
2017-10-29T09:20:08.031Z,1008.7
2017-10-29T09:21:09.649Z,1008.7
2017-10-29T09:22:11.270Z,1008.8
2017-10-29T09:23:12.896Z,1008.8
2017-10-29T09:24:14.514Z,1008.8
2017-10-29T09:25:16.137Z,1008.6
2017-10-29T09:26:17.759Z,1008.7
2017-10-29T09:27:19.385Z,1008.7
2017-10-29T09:28:20.997Z,1008.8
2017-10-29T09:29:22.618Z,1008.7
2017-10-29T09:30:24.268Z,1008.8
2017-10-29T09:31:25.858Z,1008.8
2017-10-29T09:32:27.479Z,1008.9
2017-10-29T09:33:29.100Z,1008.9
2017-10-29T09:34:30.722Z,1009.0
2017-10-29T09:35:32.348Z,1009.1
2017-10-29T09:36:33.969Z,1009.1
2017-10-29T09:37:35.590Z,1009.2
2017-10-29T09:38:37.212Z,1009.2
2017-10-29T09:39:38.831Z,1009.2
2017-10-29T09:40:40.462Z,1009.2
2017-10-29T09:41:42.074Z,1008.9
2017-10-29T09:42:43.699Z,1009.0
2017-10-29T09:43:45.320Z,1009.0
2017-10-29T09:44:46.939Z,1009.0
2017-10-29T09:45:48.558Z,1009.1
2017-10-29T09:46:50.181Z,1009.2
2017-10-29T09:47:51.804Z,1009.7
2017-10-29T09:48:53.422Z,1009.3
2017-10-29T09:49:55.044Z,1009.3
2017-10-29T09:50:56.667Z,1009.2
2017-10-29T09:51:58.285Z,1009.2
2017-10-29T09:52:59.905Z,1009.2
2017-10-29T09:54:01.527Z,1009.5
2017-10-29T09:55:03.150Z,1009.7
2017-10-29T09:56:04.769Z,1009.4
2017-10-29T09:57:06.388Z,1009.9
2017-10-29T09:58:08.016Z,1009.4
2017-10-29T09:59:09.633Z,1009.4
2017-10-29T10:00:11.258Z,1009.7
2017-10-29T10:01:12.883Z,1010.0
2017-10-29T10:02:14.503Z,1009.4
2017-10-29T10:03:16.120Z,1009.3
2017-10-29T10:04:17.743Z,1009.3
2017-10-29T10:05:19.363Z,1009.5
2017-10-29T10:06:20.983Z,1009.8
2017-10-29T10:07:22.603Z,1009.7
2017-10-29T10:08:24.223Z,1009.6
2017-10-29T10:09:25.844Z,1009.8
2017-10-29T10:10:27.497Z,1009.8
2017-10-29T10:11:29.089Z,1010.0
2017-10-29T10:12:30.710Z,1010.3
2017-10-29T10:13:32.332Z,1009.4
2017-10-29T10:14:33.952Z,1009.4
2017-10-29T10:15:35.588Z,1009.5
2017-10-29T10:16:37.200Z,1009.3
2017-10-29T10:17:38.819Z,1009.4
2017-10-29T10:18:40.442Z,1009.9
2017-10-29T10:19:42.060Z,1010.3
2017-10-29T10:20:43.678Z,1009.7
2017-10-29T10:21:45.308Z,1009.4
2017-10-29T10:22:46.923Z,1009.2
2017-10-29T10:23:48.552Z,1009.1
2017-10-29T10:24:50.161Z,1009.2
2017-10-29T10:25:51.786Z,1009.2
2017-10-29T10:26:53.406Z,1009.2
2017-10-29T10:27:55.028Z,1009.4
2017-10-29T10:28:56.646Z,1009.4
2017-10-29T10:29:58.267Z,1009.5
2017-10-29T10:30:59.891Z,1009.7
2017-10-29T10:32:01.508Z,1009.5
2017-10-29T10:33:03.125Z,1009.5
2017-10-29T10:34:04.741Z,1009.5
2017-10-29T10:35:06.362Z,1009.6
2017-10-29T10:36:07.982Z,1009.7
2017-10-29T10:37:09.599Z,1009.8
2017-10-29T10:38:11.218Z,1009.6
2017-10-29T10:39:12.838Z,1009.6
2017-10-29T10:40:14.463Z,1009.5
2017-10-29T10:41:16.074Z,1009.6
2017-10-29T10:42:17.695Z,1009.7
2017-10-29T10:43:19.313Z,1009.7
2017-10-29T10:44:20.933Z,1009.8
2017-10-29T10:45:22.552Z,1009.6
2017-10-29T10:46:24.166Z,1009.7
2017-10-29T10:47:25.782Z,1009.7
2017-10-29T10:48:27.398Z,1009.7
2017-10-29T10:49:29.021Z,1009.7
2017-10-29T10:50:30.636Z,1009.8
2017-10-29T10:51:32.261Z,1010.0
2017-10-29T10:52:33.872Z,1010.2
2017-10-29T10:53:35.490Z,1010.3
2017-10-29T10:54:37.108Z,1011.1
2017-10-29T10:55:38.729Z,1012.5
2017-10-29T10:56:40.347Z,1014.0
2017-10-29T10:57:41.968Z,1017.6
2017-10-29T10:58:43.590Z,1020.7
2017-10-29T10:59:45.211Z,1020.7
2017-10-29T11:00:46.832Z,1019.2
2017-10-29T11:01:48.454Z,1022.8
2017-10-29T11:02:50.075Z,1024.3
2017-10-29T11:03:51.696Z,1023.5
2017-10-29T11:04:53.327Z,1015.0
2017-10-29T11:05:54.942Z,1010.9
2017-10-29T11:06:56.564Z,1025.0
2017-10-29T11:07:58.187Z,1016.3
2017-10-29T11:08:59.807Z,1015.1
2017-10-29T11:10:01.430Z,1017.4
2017-10-29T11:11:03.055Z,1014.8
2017-10-29T11:12:04.675Z,1019.0
2017-10-29T11:13:06.295Z,1010.5
2017-10-29T11:14:07.923Z,1010.2
2017-10-29T11:15:09.547Z,1010.0
2017-10-29T11:16:11.164Z,1010.1
2017-10-29T11:17:12.786Z,1010.0
2017-10-29T11:18:14.407Z,1010.0
2017-10-29T11:19:16.034Z,1010.0
2017-10-29T11:20:17.647Z,1009.9
2017-10-29T11:21:19.265Z,1009.9
2017-10-29T11:22:20.882Z,1010.0
2017-10-29T11:23:22.504Z,1009.9
2017-10-29T11:24:24.123Z,1009.8
2017-10-29T11:25:25.743Z,1009.9
2017-10-29T11:26:27.359Z,1009.9
2017-10-29T11:27:28.990Z,1009.9
2017-10-29T11:28:30.604Z,1010.0
2017-10-29T11:29:32.219Z,1010.0
2017-10-29T11:30:33.838Z,1010.0
2017-10-29T11:31:35.458Z,1010.2
2017-10-29T11:32:37.079Z,1010.6
2017-10-29T11:33:38.695Z,1011.4
2017-10-29T11:34:40.319Z,1026.5
2017-10-29T11:35:41.943Z,1028.5
2017-10-29T11:36:43.573Z,1019.8
2017-10-29T11:37:45.178Z,1014.9
2017-10-29T11:38:46.800Z,1012.1
2017-10-29T11:39:48.420Z,1014.9
2017-10-29T11:40:50.043Z,1013.0
2017-10-29T11:41:51.668Z,1013.6
2017-10-29T11:42:53.283Z,1014.0
2017-10-29T11:43:54.901Z,1013.6
2017-10-29T11:44:56.530Z,1013.4
2017-10-29T11:45:58.152Z,1014.2
2017-10-29T11:46:59.772Z,1014.7
2017-10-29T11:48:01.396Z,1013.1
2017-10-29T11:49:03.015Z,1011.8
2017-10-29T11:50:04.639Z,1012.3
2017-10-29T11:51:06.257Z,1013.1
2017-10-29T11:52:07.877Z,1014.4
2017-10-29T11:53:09.519Z,1011.9
2017-10-29T11:54:11.121Z,1012.9
2017-10-29T11:55:12.741Z,1013.0
2017-10-29T11:56:14.364Z,1013.7
2017-10-29T11:57:15.992Z,1012.7
2017-10-29T11:58:17.608Z,1011.2
2017-10-29T11:59:19.229Z,1010.3
2017-10-29T12:00:20.845Z,1010.2
2017-10-29T12:01:22.472Z,1010.3
2017-10-29T12:02:24.088Z,1010.3
2017-10-29T12:03:25.705Z,1010.3
2017-10-29T12:04:27.327Z,1010.3
2017-10-29T12:05:28.944Z,1010.8
2017-10-29T12:06:30.565Z,1011.0
2017-10-29T12:07:32.184Z,1010.9
2017-10-29T12:08:33.804Z,1010.9
2017-10-29T12:09:35.425Z,1011.1
2017-10-29T12:10:37.046Z,1011.1
2017-10-29T12:11:38.666Z,1011.2
2017-10-29T12:12:40.286Z,1011.4
2017-10-29T12:13:41.903Z,1011.1
2017-10-29T12:14:43.522Z,1011.1
2017-10-29T12:15:45.142Z,1011.1
2017-10-29T12:16:46.768Z,1011.4
2017-10-29T12:17:48.383Z,1011.2
2017-10-29T12:18:50.002Z,1011.1
2017-10-29T12:19:51.620Z,1011.5
2017-10-29T12:20:53.240Z,1013.3
2017-10-29T12:21:54.865Z,1011.3
2017-10-29T12:22:56.488Z,1012.1
2017-10-29T12:23:58.107Z,1012.2
2017-10-29T12:24:59.727Z,1011.0
2017-10-29T12:26:01.350Z,1010.8
2017-10-29T12:27:02.963Z,1010.8
2017-10-29T12:28:04.580Z,1010.5
2017-10-29T12:29:06.197Z,1010.5
2017-10-29T12:30:07.818Z,1010.5
2017-10-29T12:31:09.437Z,1010.6
2017-10-29T12:32:11.057Z,1010.6
2017-10-29T12:33:12.682Z,1010.6
2017-10-29T12:34:14.300Z,1011.0
2017-10-29T12:35:15.918Z,1011.4
2017-10-29T12:36:17.539Z,1011.7
2017-10-29T12:37:19.160Z,1011.8
2017-10-29T12:38:20.779Z,1011.7
2017-10-29T12:39:22.399Z,1011.6
2017-10-29T12:40:24.022Z,1011.3
2017-10-29T12:41:25.639Z,1011.6
2017-10-29T12:42:27.258Z,1011.7
2017-10-29T12:43:28.880Z,1011.9
2017-10-29T12:44:30.499Z,1011.8
2017-10-29T12:45:32.118Z,1011.9
2017-10-29T12:46:33.748Z,1012.0
2017-10-29T12:47:35.381Z,1011.9
2017-10-29T12:48:37.015Z,1011.9